Terminal Aerodrome Forecast
Issued by NWS

Home | Current Version | Previous Version | Text Only | Print | Product List | Glossary On
Versions: 1 2 3 4 5 6 7 8 9 10 11 12 13 14 15 16 17 18 19 20 21 22 23 24 25 26 27 28 29 30 31
000
FTUS43 KLOT 281900 AAA
TAFMDW
TAF AMD
KMDW 281944Z 2820/2918 01015G25KT P6SM SCT050
     FM282300 02011G17KT P6SM SCT050
     FM290100 05008KT P6SM FEW050
     FM290500 31006KT P6SM FEW060 SCT120
     FM291500 33010KT P6SM FEW035=

USA.gov is the U.S. government's official web portal to all federal, state and local government web resources and services.